createdAt,value
2019-01-12T00:00:18.368Z,6.21
2019-01-12T00:01:18.383Z,6.21
2019-01-12T00:02:18.398Z,6.21
2019-01-12T00:04:18.431Z,6.15
2019-01-12T00:06:18.465Z,6.15
2019-01-12T00:07:18.479Z,6.18
2019-01-12T00:08:18.490Z,6.11
2019-01-12T00:09:33.167Z,6.11
2019-01-12T00:10:18.519Z,6.18
2019-01-12T00:11:18.535Z,6.27
2019-01-12T00:12:18.550Z,6.18
2019-01-12T00:13:18.562Z,6.21
2019-01-12T00:14:18.603Z,6.17
2019-01-12T00:16:18.609Z,6.09
2019-01-12T00:17:18.629Z,6.15
2019-01-12T00:19:18.655Z,6.09
2019-01-12T00:20:18.667Z,6.06
2019-01-12T00:21:18.783Z,6.03
2019-01-12T00:22:33.359Z,6.11
2019-01-12T00:23:18.715Z,6.06
2019-01-12T00:24:34.173Z,6.06
2019-01-12T00:25:18.804Z,6.11
2019-01-12T00:26:18.759Z,6.11
2019-01-12T00:27:18.775Z,6.08
2019-01-12T00:28:18.787Z,6.08
2019-01-12T00:29:18.801Z,6.11
2019-01-12T00:30:18.817Z,6.19
2019-01-12T00:31:18.834Z,6.08
2019-01-12T00:33:18.863Z,6.08
2019-01-12T00:34:33.541Z,6.01
2019-01-12T00:35:18.892Z,6.06
2019-01-12T00:36:18.909Z,6.04
2019-01-12T00:38:18.938Z,6.06
2019-01-12T00:39:18.949Z,6
2019-01-12T00:40:18.965Z,6.15
2019-01-12T00:41:18.988Z,6.08
2019-01-12T00:42:18.997Z,5.96
2019-01-12T00:43:18.768Z,5.99
2019-01-12T00:44:19.026Z,5.91
2019-01-12T00:45:19.040Z,6.01
2019-01-12T00:46:19.053Z,5.94
2019-01-12T00:47:19.075Z,5.99
2019-01-12T00:48:19.083Z,5.96
2019-01-12T00:49:19.096Z,5.97
2019-01-12T00:50:19.117Z,6.08
2019-01-12T00:51:19.129Z,6.01
2019-01-12T00:52:19.140Z,6.03
2019-01-12T00:53:33.819Z,6.06
2019-01-12T00:54:19.179Z,5.97
2019-01-12T00:55:19.202Z,6.08
2019-01-12T00:56:33.867Z,5.96
2019-01-12T00:57:19.220Z,6.06
2019-01-12T00:58:19.237Z,5.97
2019-01-12T00:59:19.246Z,6.03
2019-01-12T01:00:19.305Z,6.06
2019-01-12T01:01:19.273Z,6.06
2019-01-12T01:02:19.292Z,6.08
2019-01-12T01:03:19.302Z,6.06
2019-01-12T01:04:19.425Z,5.91
2019-01-12T01:05:19.338Z,5.99
2019-01-12T01:07:19.368Z,5.93
2019-01-12T01:08:19.385Z,5.94
2019-01-12T01:09:19.395Z,5.94
2019-01-12T01:10:19.410Z,5.94
2019-01-12T01:11:19.424Z,5.93
2019-01-12T01:12:34.105Z,5.96
2019-01-12T01:13:19.457Z,6.03
2019-01-12T01:14:34.139Z,5.91
2019-01-12T01:15:19.487Z,5.89
2019-01-12T01:16:19.499Z,5.91
2019-01-12T01:17:19.565Z,5.97
2019-01-12T01:18:19.533Z,5.97
2019-01-12T01:19:19.544Z,5.97
2019-01-12T01:20:19.559Z,5.97
2019-01-12T01:21:19.569Z,5.78
2019-01-12T01:22:19.589Z,5.79
2019-01-12T01:23:19.607Z,5.94
2019-01-12T01:24:19.618Z,5.96
2019-01-12T01:25:19.627Z,5.86
2019-01-12T01:26:19.645Z,5.91
2019-01-12T01:27:19.661Z,5.85
2019-01-12T01:28:34.335Z,5.82
2019-01-12T01:29:19.692Z,5.81
2019-01-12T01:30:19.703Z,5.82
2019-01-12T01:31:19.717Z,5.79
2019-01-12T01:32:19.744Z,5.83
2019-01-12T01:33:19.503Z,5.74
2019-01-12T01:34:19.766Z,5.71
2019-01-12T01:35:19.775Z,5.81
2019-01-12T01:36:19.790Z,5.71
2019-01-12T01:37:34.472Z,5.75
2019-01-12T01:38:19.819Z,5.78
2019-01-12T01:39:19.883Z,5.81
2019-01-12T01:40:34.512Z,5.94
2019-01-12T01:41:19.967Z,5.85
2019-01-12T01:42:19.877Z,5.83
2019-01-12T01:43:19.892Z,5.82
2019-01-12T01:44:34.571Z,5.85
2019-01-12T01:45:19.925Z,5.82
2019-01-12T01:46:19.936Z,5.83
2019-01-12T01:47:19.948Z,5.97
2019-01-12T01:48:19.963Z,5.97
2019-01-12T01:50:19.993Z,5.99
2019-01-12T01:51:20.010Z,5.86
2019-01-12T01:52:20.078Z,5.97
2019-01-12T01:53:20.037Z,5.89
2019-01-12T01:54:20.055Z,5.99
2019-01-12T01:55:20.068Z,5.99
2019-01-12T01:56:34.746Z,5.91
2019-01-12T01:57:20.102Z,5.85
2019-01-12T01:58:20.121Z,5.89
2019-01-12T01:59:34.791Z,5.85
2019-01-12T02:00:20.194Z,5.86
2019-01-12T02:02:20.175Z,5.82
2019-01-12T02:03:20.188Z,5.85
2019-01-12T02:04:20.204Z,5.9
2019-01-12T02:06:20.243Z,5.96
2019-01-12T02:07:20.244Z,5.85
2019-01-12T02:08:20.260Z,5.9
2019-01-12T02:09:20.274Z,5.89
2019-01-12T02:10:34.957Z,6
2019-01-12T02:12:34.982Z,5.89
2019-01-12T02:13:20.331Z,5.9
2019-01-12T02:14:20.349Z,5.96
2019-01-12T02:15:20.363Z,5.86
2019-01-12T02:16:20.378Z,5.96
2019-01-12T02:17:20.392Z,5.97
2019-01-12T02:18:20.406Z,5.86
2019-01-12T02:19:20.419Z,5.9
2019-01-12T02:20:20.436Z,5.79
2019-01-12T02:21:20.455Z,5.85
2019-01-12T02:22:20.467Z,5.91
2019-01-12T02:23:20.480Z,5.85
2019-01-12T02:24:20.497Z,5.86
2019-01-12T02:25:35.175Z,5.86
2019-01-12T02:26:20.524Z,5.79
2019-01-12T02:27:20.538Z,5.79
2019-01-12T02:28:35.215Z,5.89
2019-01-12T02:29:20.569Z,5.83
2019-01-12T02:30:20.603Z,5.79
2019-01-12T02:31:35.260Z,5.89
2019-01-12T02:32:20.615Z,5.9
2019-01-12T02:33:20.627Z,5.79
2019-01-12T02:34:20.649Z,5.93
2019-01-12T02:35:20.665Z,5.89
2019-01-12T02:36:20.673Z,5.79
2019-01-12T02:37:20.686Z,5.89
2019-01-12T02:38:20.701Z,5.81
2019-01-12T02:40:20.746Z,5.65
2019-01-12T02:41:20.752Z,5.65
2019-01-12T02:42:20.760Z,5.82
2019-01-12T02:43:20.776Z,5.83
2019-01-12T02:44:20.794Z,5.81
2019-01-12T02:45:20.805Z,5.85
2019-01-12T02:46:36.727Z,5.85
2019-01-12T02:47:35.498Z,5.83
2019-01-12T02:48:35.538Z,5.89
2019-01-12T02:49:20.886Z,5.81
2019-01-12T02:50:20.876Z,5.86
2019-01-12T02:51:20.893Z,5.83
2019-01-12T02:52:20.906Z,5.74
2019-01-12T02:53:20.919Z,5.71
2019-01-12T02:54:20.957Z,5.81
2019-01-12T02:56:20.966Z,5.83
2019-01-12T02:57:20.978Z,5.78
2019-01-12T02:58:21.001Z,5.68
2019-01-12T02:59:35.674Z,5.76
2019-01-12T03:00:35.688Z,5.78
2019-01-12T03:01:21.041Z,5.76
2019-01-12T03:02:21.057Z,5.74
2019-01-12T03:03:35.732Z,5.68
2019-01-12T03:04:21.095Z,5.68
2019-01-12T03:05:21.115Z,5.79
2019-01-12T03:06:21.115Z,5.65
2019-01-12T03:07:21.126Z,5.61
2019-01-12T03:08:21.142Z,5.65
2019-01-12T03:09:21.159Z,5.65
2019-01-12T03:12:21.204Z,5.74
2019-01-12T03:13:21.221Z,5.75
2019-01-12T03:14:21.229Z,5.65
2019-01-12T03:15:21.269Z,5.64
2019-01-12T03:16:21.268Z,5.68
2019-01-12T03:18:21.290Z,5.64
2019-01-12T03:19:35.966Z,5.65
2019-01-12T03:20:21.418Z,5.78
2019-01-12T03:21:21.340Z,5.83
2019-01-12T03:22:21.368Z,5.78
2019-01-12T03:23:21.370Z,5.72
2019-01-12T03:24:21.379Z,5.64
2019-01-12T03:26:21.411Z,5.63
2019-01-12T03:27:21.425Z,5.68
2019-01-12T03:28:21.449Z,5.72
2019-01-12T03:29:21.451Z,5.64
2019-01-12T03:30:21.514Z,5.68
2019-01-12T03:31:21.495Z,5.6
2019-01-12T03:32:21.526Z,5.64
2019-01-12T03:33:21.537Z,5.64
2019-01-12T03:34:36.197Z,5.65
2019-01-12T03:35:21.763Z,5.64
2019-01-12T03:36:21.556Z,5.72
2019-01-12T03:37:21.571Z,5.71
2019-01-12T03:38:21.587Z,5.71
2019-01-12T03:39:21.611Z,5.74
2019-01-12T03:40:36.334Z,5.78
2019-01-12T03:41:21.628Z,5.85
2019-01-12T03:42:21.652Z,5.83
2019-01-12T03:43:21.658Z,5.74
2019-01-12T03:44:21.677Z,5.81
2019-01-12T03:45:21.747Z,5.81
2019-01-12T03:47:21.718Z,5.82
2019-01-12T03:48:21.733Z,5.79
2019-01-12T03:49:21.747Z,5.75
2019-01-12T03:50:21.763Z,5.74
2019-01-12T03:51:21.777Z,5.76
2019-01-12T03:52:21.793Z,5.89
2019-01-12T03:53:21.805Z,5.85
2019-01-12T03:54:21.820Z,5.72
2019-01-12T03:55:44.987Z,5.85
2019-01-12T03:56:21.850Z,5.79
2019-01-12T03:58:21.891Z,5.68
2019-01-12T04:00:36.701Z,5.61
2019-01-12T04:01:21.928Z,5.76
2019-01-12T04:02:21.944Z,5.74
2019-01-12T04:03:36.614Z,5.72
2019-01-12T04:04:21.971Z,5.71
2019-01-12T04:05:21.985Z,5.75
2019-01-12T04:06:36.668Z,5.74
2019-01-12T04:07:22.017Z,5.67
2019-01-12T04:08:22.028Z,5.68
2019-01-12T04:09:22.042Z,5.71
2019-01-12T04:10:22.055Z,5.71
2019-01-12T04:11:22.074Z,5.67
2019-01-12T04:12:22.083Z,5.75
2019-01-12T04:13:21.853Z,5.67
2019-01-12T04:14:22.114Z,5.68
2019-01-12T04:15:22.128Z,5.68
2019-01-12T04:16:22.164Z,5.65
2019-01-12T04:17:36.821Z,5.72
2019-01-12T04:18:36.835Z,5.82
2019-01-12T04:19:22.188Z,5.79
2019-01-12T04:20:22.229Z,5.72
2019-01-12T04:21:22.225Z,5.71
2019-01-12T04:22:36.898Z,5.75
2019-01-12T04:23:22.267Z,5.72
2019-01-12T04:24:22.262Z,5.68
2019-01-12T04:25:22.349Z,5.76
2019-01-12T04:26:22.289Z,5.79
2019-01-12T04:27:22.060Z,5.79
2019-01-12T04:28:22.091Z,5.81
2019-01-12T04:29:22.334Z,5.72
2019-01-12T04:30:22.364Z,5.72
2019-01-12T04:31:22.371Z,5.74
2019-01-12T04:32:22.382Z,5.74
2019-01-12T04:33:22.393Z,5.79
2019-01-12T04:34:37.072Z,5.75
2019-01-12T04:35:22.421Z,5.74
2019-01-12T04:36:22.436Z,5.79
2019-01-12T04:37:22.454Z,5.82
2019-01-12T04:39:22.481Z,5.74
2019-01-12T04:40:22.499Z,5.79
2019-01-12T04:41:22.264Z,5.81
2019-01-12T04:42:22.522Z,5.78
2019-01-12T04:43:22.543Z,5.81
2019-01-12T04:44:22.692Z,5.79
2019-01-12T04:45:22.582Z,5.83
2019-01-12T04:46:22.588Z,5.68
2019-01-12T04:47:22.596Z,5.72
2019-01-12T04:48:24.425Z,5.74
2019-01-12T04:49:22.633Z,5.78
2019-01-12T04:50:22.640Z,5.71
2019-01-12T04:51:37.336Z,5.78
2019-01-12T04:52:22.686Z,5.74
2019-01-12T04:53:22.689Z,5.81
2019-01-12T04:54:37.364Z,5.74
2019-01-12T04:55:22.720Z,5.74
2019-01-12T04:56:22.729Z,5.79
2019-01-12T04:57:22.745Z,5.72
2019-01-12T04:58:22.762Z,5.78
2019-01-12T04:59:22.776Z,5.78
2019-01-12T05:00:22.796Z,5.76
2019-01-12T05:01:22.808Z,5.81
2019-01-12T05:02:22.821Z,5.86
2019-01-12T05:03:22.834Z,5.83
2019-01-12T05:04:22.859Z,5.82
2019-01-12T05:06:22.879Z,5.83
2019-01-12T05:07:22.900Z,5.83
2019-01-12T05:08:22.910Z,5.83
2019-01-12T05:09:37.590Z,5.93
2019-01-12T05:10:22.942Z,5.93
2019-01-12T05:11:22.955Z,5.9
2019-01-12T05:12:22.966Z,5.93
2019-01-12T05:13:22.982Z,5.99
2019-01-12T05:14:22.998Z,6
2019-01-12T05:15:23.021Z,5.85
2019-01-12T05:16:23.033Z,5.93
2019-01-12T05:17:23.148Z,5.85
2019-01-12T05:18:23.061Z,5.93
2019-01-12T05:19:37.735Z,5.94
2019-01-12T05:20:23.091Z,5.89
2019-01-12T05:21:23.113Z,5.9
2019-01-12T05:22:23.116Z,5.99
2019-01-12T05:23:23.134Z,5.94
2019-01-12T05:24:23.145Z,5.99
2019-01-12T05:26:23.173Z,6
2019-01-12T05:27:23.187Z,5.93
2019-01-12T05:28:23.204Z,6.03
2019-01-12T05:29:23.228Z,5.91
2019-01-12T05:31:23.247Z,5.96
2019-01-12T05:32:23.266Z,5.97
2019-01-12T05:34:23.300Z,6
2019-01-12T05:35:23.308Z,6.04
2019-01-12T05:36:23.349Z,6.09
2019-01-12T05:37:23.338Z,6.03
2019-01-12T05:38:23.352Z,6.01
2019-01-12T05:39:23.365Z,5.94
2019-01-12T05:40:23.402Z,5.94
2019-01-12T05:41:38.058Z,5.97
2019-01-12T05:42:23.473Z,5.86
2019-01-12T05:43:23.430Z,5.97
2019-01-12T05:44:23.444Z,5.96
2019-01-12T05:45:23.458Z,5.9
2019-01-12T05:46:23.469Z,6.03
2019-01-12T05:47:23.482Z,5.93
2019-01-12T05:48:23.500Z,6.03
2019-01-12T05:49:23.519Z,5.86
2019-01-12T05:53:23.625Z,5.89
2019-01-12T05:54:23.595Z,5.99
2019-01-12T05:55:23.602Z,5.94
2019-01-12T05:56:23.618Z,5.9
2019-01-12T05:57:38.297Z,5.9
2019-01-12T05:58:23.652Z,5.91
2019-01-12T05:59:23.660Z,5.96
2019-01-12T06:00:23.675Z,6
2019-01-12T06:01:23.692Z,5.97
2019-01-12T06:03:23.718Z,6.08
2019-01-12T06:04:23.735Z,6
2019-01-12T06:05:23.751Z,6
2019-01-12T06:06:38.526Z,6.09
2019-01-12T06:08:23.794Z,6.09
2019-01-12T06:09:38.471Z,6.03
2019-01-12T06:10:23.825Z,6.03
2019-01-12T06:11:23.836Z,6.12
2019-01-12T06:12:23.853Z,6.09
2019-01-12T06:13:38.530Z,6.11
2019-01-12T06:14:23.882Z,6.15
2019-01-12T06:15:23.900Z,6.11
2019-01-12T06:16:23.911Z,6.06
2019-01-12T06:17:23.974Z,6.06
2019-01-12T06:18:23.939Z,6.09
2019-01-12T06:19:23.956Z,6.01
2019-01-12T06:20:23.977Z,6.08
2019-01-12T06:21:23.986Z,6.06
2019-01-12T06:22:38.714Z,6.11
2019-01-12T06:23:24.015Z,6.03
2019-01-12T06:24:24.030Z,6.12
2019-01-12T06:25:38.710Z,6.06
2019-01-12T06:26:24.064Z,6.06
2019-01-12T06:27:24.073Z,6.03
2019-01-12T06:28:24.092Z,6.09
2019-01-12T06:29:38.815Z,6.04
2019-01-12T06:30:24.122Z,6.12
2019-01-12T06:31:24.145Z,6.08
2019-01-12T06:32:24.150Z,5.97
2019-01-12T06:33:24.162Z,6.04
2019-01-12T06:35:24.205Z,6.12
2019-01-12T06:36:24.211Z,6.01
2019-01-12T06:37:24.221Z,6.01
2019-01-12T06:38:25.149Z,6.03
2019-01-12T06:39:24.259Z,6.06
2019-01-12T06:40:24.268Z,5.97
2019-01-12T06:41:24.280Z,6.09
2019-01-12T06:42:38.958Z,6.03
2019-01-12T06:43:24.314Z,6.08
2019-01-12T06:44:38.987Z,5.99
2019-01-12T06:46:24.360Z,6.12
2019-01-12T06:47:24.369Z,6.08
2019-01-12T06:48:24.387Z,6
2019-01-12T06:49:24.405Z,6.03
2019-01-12T06:50:24.416Z,6.12
2019-01-12T06:51:24.495Z,6.04
2019-01-12T06:52:24.195Z,6.08
2019-01-12T06:53:24.463Z,6.08
2019-01-12T06:54:24.926Z,6.15
2019-01-12T06:56:24.505Z,6.06
2019-01-12T06:57:24.570Z,6.08
2019-01-12T06:58:24.532Z,6.09
2019-01-12T06:59:24.550Z,6.11
2019-01-12T07:00:24.563Z,6.04
2019-01-12T07:01:24.578Z,6.11
2019-01-12T07:02:24.595Z,6.17
2019-01-12T07:03:24.607Z,6.11
2019-01-12T07:04:24.621Z,6.06
2019-01-12T07:05:24.635Z,6.09
2019-01-12T07:06:24.663Z,6.12
2019-01-12T07:07:24.667Z,6.14
2019-01-12T07:08:24.681Z,6.22
2019-01-12T07:09:24.696Z,6.18
2019-01-12T07:10:24.722Z,6.18
2019-01-12T07:11:24.725Z,6.08
2019-01-12T07:12:24.740Z,6.11
2019-01-12T07:13:24.760Z,6.04
2019-01-12T07:14:24.770Z,6.14
2019-01-12T07:15:24.800Z,6.18
2019-01-12T07:16:39.464Z,6.14
2019-01-12T07:17:24.814Z,6.12
2019-01-12T07:18:24.832Z,6.11
2019-01-12T07:19:24.845Z,6.28
2019-01-12T07:20:24.864Z,6.22
2019-01-12T07:21:24.875Z,6.22
2019-01-12T07:22:24.889Z,6.17
2019-01-12T07:23:24.909Z,6.27
2019-01-12T07:24:24.920Z,6.27
2019-01-12T07:25:24.936Z,6.28
2019-01-12T07:26:24.951Z,6.14
2019-01-12T07:27:24.966Z,6.3
2019-01-12T07:28:24.978Z,6.17
2019-01-12T07:29:39.657Z,6.17
2019-01-12T07:30:25.010Z,6.17
2019-01-12T07:31:25.031Z,6.25
2019-01-12T07:32:39.702Z,6.33
2019-01-12T07:33:25.054Z,6.31
2019-01-12T07:34:25.070Z,6.3
2019-01-12T07:35:25.084Z,6.34
2019-01-12T07:36:25.100Z,6.25
2019-01-12T07:37:25.115Z,6.22
2019-01-12T07:38:25.128Z,6.3
2019-01-12T07:39:25.146Z,6.4
2019-01-12T07:41:25.188Z,6.38
2019-01-12T07:42:25.194Z,6.37
2019-01-12T07:43:39.868Z,6.41
2019-01-12T07:44:25.013Z,6.49
2019-01-12T07:45:25.235Z,6.49
2019-01-12T07:46:25.252Z,6.43
2019-01-12T07:47:25.266Z,6.58
2019-01-12T07:48:39.944Z,6.56
2019-01-12T07:49:25.295Z,6.52
2019-01-12T07:50:25.061Z,6.55
2019-01-12T07:51:25.328Z,6.56
2019-01-12T07:52:25.340Z,6.54
2019-01-12T07:54:25.374Z,6.43
2019-01-12T07:55:40.053Z,6.48
2019-01-12T07:56:29.319Z,6.46
2019-01-12T07:57:25.421Z,6.49
2019-01-12T07:58:25.431Z,6.37
2019-01-12T07:59:25.446Z,6.4
2019-01-12T08:00:40.122Z,6.36
2019-01-12T08:01:25.475Z,6.4
2019-01-12T08:02:25.493Z,6.31
2019-01-12T08:03:25.504Z,6.4
2019-01-12T08:04:40.183Z,6.44
2019-01-12T08:05:25.540Z,6.36
2019-01-12T08:06:25.557Z,6.28
2019-01-12T08:07:25.608Z,6.31
2019-01-12T08:08:25.580Z,6.27
2019-01-12T08:09:25.595Z,6.19
2019-01-12T08:12:25.747Z,6.27
2019-01-12T08:13:25.656Z,6.15
2019-01-12T08:14:25.675Z,6.15
2019-01-12T08:15:40.351Z,6.19
2019-01-12T08:16:25.701Z,6.14
2019-01-12T08:17:25.716Z,6.12
2019-01-12T08:18:25.729Z,6.08
2019-01-12T08:19:40.409Z,6.17
2019-01-12T08:20:25.763Z,6.11
2019-01-12T08:21:25.775Z,6.21
2019-01-12T08:22:25.789Z,6.22
2019-01-12T08:23:25.807Z,6.14
2019-01-12T08:24:25.821Z,6.22
2019-01-12T08:25:25.834Z,6.3
2019-01-12T08:26:31.122Z,6.3
2019-01-12T08:27:25.863Z,6.31
2019-01-12T08:28:25.881Z,6.38
2019-01-12T08:29:25.893Z,6.43
2019-01-12T08:30:25.914Z,6.48
2019-01-12T08:31:40.589Z,6.51
2019-01-12T08:32:25.943Z,6.41
2019-01-12T08:33:25.958Z,6.49
2019-01-12T08:34:25.973Z,6.55
2019-01-12T08:35:25.983Z,6.56
2019-01-12T08:36:26.003Z,6.59
2019-01-12T08:37:26.015Z,6.58
2019-01-12T08:38:26.032Z,6.54
2019-01-12T08:39:26.048Z,6.58
2019-01-12T08:40:26.059Z,6.64
2019-01-12T08:41:26.076Z,6.55
2019-01-12T08:42:27.123Z,6.56
2019-01-12T08:43:26.106Z,6.61
2019-01-12T08:44:26.121Z,6.67
2019-01-12T08:45:26.141Z,6.67
2019-01-12T08:46:26.151Z,6.62
2019-01-12T08:47:26.165Z,6.58
2019-01-12T08:48:26.182Z,6.59
2019-01-12T08:49:26.196Z,6.64
2019-01-12T08:50:26.213Z,6.59
2019-01-12T08:51:40.891Z,6.61
2019-01-12T08:52:26.244Z,6.58
2019-01-12T08:53:26.261Z,6.58
2019-01-12T08:54:26.277Z,6.62
2019-01-12T08:55:27.197Z,6.61
2019-01-12T08:56:26.303Z,6.59
2019-01-12T08:57:26.318Z,6.59
2019-01-12T08:58:26.335Z,6.64
2019-01-12T08:59:26.350Z,6.67
2019-01-12T09:00:26.366Z,6.62
2019-01-12T09:01:26.383Z,6.59
2019-01-12T09:02:26.394Z,6.61
2019-01-12T09:03:26.426Z,6.55
2019-01-12T09:04:26.430Z,6.64
2019-01-12T09:05:26.438Z,6.67
2019-01-12T09:06:26.454Z,6.62
2019-01-12T09:07:41.136Z,6.64
2019-01-12T09:08:26.485Z,6.58
2019-01-12T09:09:26.504Z,6.64
2019-01-12T09:10:26.521Z,6.64
2019-01-12T09:12:26.549Z,6.73
2019-01-12T09:13:26.560Z,6.71
2019-01-12T09:14:26.578Z,6.71
2019-01-12T09:15:26.595Z,6.7
2019-01-12T09:18:26.638Z,6.64
2019-01-12T09:19:26.654Z,6.59
2019-01-12T09:20:26.672Z,6.67
2019-01-12T09:21:26.690Z,6.55
2019-01-12T09:22:41.120Z,6.58
2019-01-12T09:23:41.375Z,6.55
2019-01-12T09:24:26.728Z,6.55
2019-01-12T09:25:26.767Z,6.56
2019-01-12T09:26:26.764Z,6.54
2019-01-12T09:27:26.775Z,6.59
2019-01-12T09:28:26.790Z,6.56
2019-01-12T09:29:26.810Z,6.46
2019-01-12T09:30:41.490Z,6.38
2019-01-12T09:31:26.836Z,6.52
2019-01-12T09:32:26.851Z,6.54
2019-01-12T09:33:26.866Z,6.51
2019-01-12T09:35:26.899Z,6.58
2019-01-12T09:36:41.575Z,6.55
2019-01-12T09:37:26.934Z,6.51
2019-01-12T09:38:26.941Z,6.52
2019-01-12T09:39:41.621Z,6.56
2019-01-12T09:40:26.974Z,6.46
2019-01-12T09:41:26.991Z,6.54
2019-01-12T09:42:27.002Z,6.56
2019-01-12T09:43:27.020Z,6.59
2019-01-12T09:44:27.037Z,6.54
2019-01-12T09:45:27.051Z,6.59
2019-01-12T09:46:27.068Z,6.55
2019-01-12T09:47:27.082Z,6.56
2019-01-12T09:48:27.095Z,6.64
2019-01-12T09:49:27.112Z,6.58
2019-01-12T09:50:41.790Z,6.55
2019-01-12T09:51:27.147Z,6.61
2019-01-12T09:52:27.158Z,6.62
2019-01-12T09:53:27.173Z,6.56
2019-01-12T09:54:41.851Z,6.7
2019-01-12T09:55:27.205Z,6.67
2019-01-12T09:56:26.987Z,6.55
2019-01-12T09:57:27.237Z,6.64
2019-01-12T09:58:27.250Z,6.73
2019-01-12T09:59:27.124Z,6.73
2019-01-12T10:00:27.290Z,6.74
2019-01-12T10:01:27.295Z,6.73
2019-01-12T10:02:27.310Z,6.74
2019-01-12T10:03:27.324Z,6.71
2019-01-12T10:05:27.365Z,6.7
2019-01-12T10:06:27.372Z,6.73
2019-01-12T10:07:27.386Z,6.71
2019-01-12T10:08:27.402Z,6.7
2019-01-12T10:09:27.424Z,6.73
2019-01-12T10:10:27.439Z,6.64
2019-01-12T10:11:27.449Z,6.73
2019-01-12T10:12:27.469Z,6.71
2019-01-12T10:13:27.477Z,6.76
2019-01-12T10:14:27.593Z,6.73
2019-01-12T10:15:27.513Z,6.77
2019-01-12T10:16:27.524Z,6.85
2019-01-12T10:18:27.553Z,6.89
2019-01-12T10:19:27.579Z,6.97
2019-01-12T10:21:27.604Z,6.95
2019-01-12T10:22:48.042Z,7.05
2019-01-12T10:23:27.635Z,6.98
2019-01-12T10:25:27.666Z,7.13
2019-01-12T10:26:42.341Z,7.16
2019-01-12T10:27:27.699Z,7.09
2019-01-12T10:28:27.728Z,7.02
2019-01-12T10:29:27.724Z,7.07
2019-01-12T10:30:27.740Z,7.12
2019-01-12T10:31:27.758Z,7.13
2019-01-12T10:32:27.774Z,7.13
2019-01-12T10:34:27.810Z,7.1
2019-01-12T10:36:27.837Z,7.2
2019-01-12T10:38:27.871Z,7.13
2019-01-12T10:39:42.544Z,7.24
2019-01-12T10:40:27.895Z,7.23
2019-01-12T10:41:27.917Z,7.24
2019-01-12T10:42:42.591Z,7.24
2019-01-12T10:43:27.943Z,7.25
2019-01-12T10:44:27.957Z,7.25
2019-01-12T10:45:27.973Z,7.25
2019-01-12T10:46:27.992Z,7.25
2019-01-12T10:47:28.007Z,7.25
2019-01-12T10:48:28.022Z,7.25
2019-01-12T10:49:28.036Z,7.25
2019-01-12T10:50:28.058Z,7.28
2019-01-12T10:51:27.825Z,7.25
2019-01-12T10:52:28.084Z,7.3
2019-01-12T10:53:28.098Z,7.37
2019-01-12T10:54:28.114Z,7.46
2019-01-12T10:55:42.793Z,7.4
2019-01-12T10:56:28.181Z,7.5
2019-01-12T10:57:28.162Z,7.48
2019-01-12T10:58:42.840Z,7.57
2019-01-12T10:59:28.201Z,7.55
2019-01-12T11:00:28.209Z,7.52
2019-01-12T11:01:28.224Z,7.46
2019-01-12T11:02:28.277Z,7.39
2019-01-12T11:03:28.257Z,7.45
2019-01-12T11:04:28.279Z,7.39
2019-01-12T11:05:28.289Z,7.25
2019-01-12T11:06:28.309Z,7.42
2019-01-12T11:08:28.085Z,7.35
2019-01-12T11:09:28.393Z,7.37
2019-01-12T11:10:28.373Z,7.34
2019-01-12T11:11:28.387Z,7.46
2019-01-12T11:12:28.396Z,7.42
2019-01-12T11:13:28.411Z,7.45
2019-01-12T11:14:43.093Z,7.45
2019-01-12T11:15:28.443Z,7.4
2019-01-12T11:16:28.462Z,7.37
2019-01-12T11:17:28.478Z,7.42
2019-01-12T11:18:28.493Z,7.46
2019-01-12T11:19:28.508Z,7.34
2019-01-12T11:20:28.521Z,7.4
2019-01-12T11:21:28.537Z,7.45
2019-01-12T11:22:29.701Z,7.43
2019-01-12T11:24:28.589Z,7.58
2019-01-12T11:25:28.611Z,7.5
2019-01-12T11:26:28.633Z,7.5
2019-01-12T11:27:28.637Z,7.53
2019-01-12T11:28:28.653Z,7.49
2019-01-12T11:29:43.330Z,7.57
2019-01-12T11:30:28.686Z,7.58
2019-01-12T11:31:28.696Z,7.6
2019-01-12T11:32:28.717Z,7.6
2019-01-12T11:33:28.731Z,7.67
2019-01-12T11:34:28.759Z,7.53
2019-01-12T11:35:28.759Z,7.64
2019-01-12T11:36:43.448Z,7.69
2019-01-12T11:38:28.812Z,7.6
2019-01-12T11:39:28.827Z,7.6
2019-01-12T11:40:28.868Z,7.58
2019-01-12T11:41:28.861Z,7.6
2019-01-12T11:42:28.873Z,7.55
2019-01-12T11:43:28.902Z,7.57
2019-01-12T11:44:28.906Z,7.55
2019-01-12T11:45:28.923Z,7.55
2019-01-12T11:46:28.940Z,7.53
2019-01-12T11:47:28.957Z,7.61
2019-01-12T11:48:28.725Z,7.57
2019-01-12T11:49:28.989Z,7.61
2019-01-12T11:50:29.004Z,7.53
2019-01-12T11:51:29.065Z,7.53
2019-01-12T11:52:29.033Z,7.49
2019-01-12T11:53:29.053Z,7.5
2019-01-12T11:54:29.074Z,7.6
2019-01-12T11:55:29.085Z,7.6
2019-01-12T11:56:29.100Z,7.46
2019-01-12T11:57:29.121Z,7.48
2019-01-12T11:58:29.131Z,7.53
2019-01-12T11:59:29.144Z,7.53
2019-01-12T12:00:29.164Z,7.57
2019-01-12T12:01:43.841Z,7.58
2019-01-12T12:02:29.196Z,7.57
2019-01-12T12:03:29.220Z,7.52
2019-01-12T12:04:29.225Z,7.52
2019-01-12T12:05:29.241Z,7.55
2019-01-12T12:06:29.257Z,7.45
2019-01-12T12:07:29.272Z,7.46
2019-01-12T12:08:29.288Z,7.46
2019-01-12T12:09:29.310Z,7.48
2019-01-12T12:10:29.320Z,7.48
2019-01-12T12:13:29.370Z,7.43
2019-01-12T12:14:29.401Z,7.48
2019-01-12T12:15:44.064Z,7.45
2019-01-12T12:16:29.421Z,7.49
2019-01-12T12:17:44.094Z,7.52
2019-01-12T12:18:29.453Z,7.52
2019-01-12T12:19:29.466Z,7.49
2019-01-12T12:20:29.483Z,7.63
2019-01-12T12:21:30.092Z,7.58
2019-01-12T12:22:29.516Z,7.6
2019-01-12T12:23:29.528Z,7.63
2019-01-12T12:24:29.543Z,7.63
2019-01-12T12:25:29.559Z,7.67
2019-01-12T12:26:29.575Z,7.52
2019-01-12T12:27:30.917Z,7.6
2019-01-12T12:28:44.273Z,7.57
2019-01-12T12:29:29.632Z,7.64
2019-01-12T12:30:29.644Z,7.72
2019-01-12T12:31:44.319Z,7.58
2019-01-12T12:32:44.350Z,7.6
2019-01-12T12:33:44.353Z,7.63
2019-01-12T12:34:29.739Z,7.55
2019-01-12T12:35:29.718Z,7.71
2019-01-12T12:36:29.736Z,7.77
2019-01-12T12:37:29.853Z,7.77
2019-01-12T12:38:29.769Z,7.72
2019-01-12T12:39:29.785Z,7.72
2019-01-12T12:40:29.802Z,7.58
2019-01-12T12:41:29.821Z,7.6
2019-01-12T12:43:29.849Z,7.58
2019-01-12T12:44:29.870Z,7.67
2019-01-12T12:45:29.893Z,7.63
2019-01-12T12:46:44.562Z,7.64
2019-01-12T12:47:29.915Z,7.61
2019-01-12T12:48:30.383Z,7.6
2019-01-12T12:49:44.615Z,7.61
2019-01-12T12:50:29.969Z,7.58
2019-01-12T12:51:29.977Z,7.57
2019-01-12T12:52:29.995Z,7.69
2019-01-12T12:53:30.014Z,7.61
2019-01-12T12:54:30.029Z,7.64
2019-01-12T12:55:29.796Z,7.61
2019-01-12T12:57:35.362Z,7.68
2019-01-12T12:58:30.092Z,7.72
2019-01-12T12:59:30.108Z,7.67
2019-01-12T13:00:30.133Z,7.75
2019-01-12T13:01:30.139Z,7.64
2019-01-12T13:02:44.825Z,7.68
2019-01-12T13:03:30.173Z,7.68
2019-01-12T13:04:44.854Z,7.69
2019-01-12T13:05:30.207Z,7.68
2019-01-12T13:06:30.225Z,7.68
2019-01-12T13:07:30.240Z,7.58
2019-01-12T13:08:30.260Z,7.79
2019-01-12T13:09:30.270Z,7.74
2019-01-12T13:10:30.302Z,7.77
2019-01-12T13:11:30.302Z,7.68
2019-01-12T13:12:30.318Z,7.67
2019-01-12T13:13:30.128Z,7.72
2019-01-12T13:14:30.361Z,7.77
2019-01-12T13:16:45.048Z,7.63
2019-01-12T13:17:45.062Z,7.52
2019-01-12T13:18:30.416Z,7.61
2019-01-12T13:19:30.431Z,7.68
2019-01-12T13:20:30.450Z,7.69
2019-01-12T13:21:30.463Z,7.53
2019-01-12T13:22:30.478Z,7.46
2019-01-12T13:23:30.499Z,7.6
2019-01-12T13:24:30.523Z,7.5
2019-01-12T13:25:32.029Z,7.48
2019-01-12T13:26:30.561Z,7.57
2019-01-12T13:27:30.560Z,7.49
2019-01-12T13:28:30.678Z,7.55
2019-01-12T13:29:45.260Z,7.52
2019-01-12T13:30:45.274Z,7.6
2019-01-12T13:31:31.511Z,7.52
2019-01-12T13:32:30.638Z,7.6
2019-01-12T13:33:30.658Z,7.63
2019-01-12T13:34:30.683Z,7.61
2019-01-12T13:35:30.691Z,7.58
2019-01-12T13:36:45.375Z,7.75
2019-01-12T13:37:30.722Z,7.67
2019-01-12T13:38:30.738Z,7.68
2019-01-12T13:40:30.772Z,7.75
2019-01-12T13:42:30.807Z,7.75
2019-01-12T13:43:30.817Z,7.77
2019-01-12T13:45:30.601Z,7.75
2019-01-12T13:47:30.884Z,7.63
2019-01-12T13:48:30.905Z,7.64
2019-01-12T13:49:45.577Z,7.63
2019-01-12T13:50:45.592Z,7.58
2019-01-12T13:51:30.947Z,7.58
2019-01-12T13:52:45.627Z,7.57
2019-01-12T13:53:30.977Z,7.68
2019-01-12T13:55:31.010Z,7.48
2019-01-12T13:56:31.025Z,7.48
2019-01-12T13:58:31.065Z,7.4
2019-01-12T13:59:31.074Z,7.43
2019-01-12T14:00:31.102Z,7.4
2019-01-12T14:01:31.103Z,7.53
2019-01-12T14:02:31.127Z,7.45
2019-01-12T14:03:31.143Z,7.52
2019-01-12T14:04:31.158Z,7.42
2019-01-12T14:05:31.171Z,7.34
2019-01-12T14:06:31.189Z,7.25
2019-01-12T14:07:31.201Z,7.24
2019-01-12T14:08:45.881Z,7.39
2019-01-12T14:09:31.234Z,7.24
2019-01-12T14:10:31.253Z,7.3
2019-01-12T14:11:31.265Z,7.28
2019-01-12T14:12:31.285Z,7.12
2019-01-12T14:13:31.296Z,7.12
2019-01-12T14:14:31.312Z,7.27
2019-01-12T14:15:31.376Z,7.25
2019-01-12T14:16:31.447Z,7.07
2019-01-12T14:17:31.576Z,7.2
2019-01-12T14:18:46.042Z,7.15
2019-01-12T14:19:31.392Z,7.09
2019-01-12T14:20:31.410Z,7.16
2019-01-12T14:21:46.087Z,7.1
2019-01-12T14:22:31.440Z,7.05
2019-01-12T14:23:31.461Z,6.97